Chambers, AZ

11:00 AM MDT on September 16, 2014 (GMT -0600)
Saint Johns Industrial | Change Station
CLOSE
Current Station
Airport
Location: St. Johns,
Elevation: 5725 ft
Nearby Weather Stations

Elev 5725 ft 34.52 °N, 109.38 °W | Updated 6 minutes ago

Clear
Clear
73 °F
Feels Like 73 °F
N
4
Wind Variable Wind from Variable

Today
High -- | Low -- °F
--% Chance of Precip.
Yesterday
High -- | Low -- °F
Precip. -- in
7:01 AM 7:23 PM
Last Quarter, 44% visible
Pressure 29.98 in
Visibility 10.0 miles
Clouds Clear
Dew Point 53 °F
Humidity 49%
Rainfall 0.00 in
Snow Depth 1 in , 0 in , 0 in
UV 7 out of 12
Pollen 6.50 out of 12
Air Quality Not available.
Flu Activity Not available.
METAR KSJN 161654Z AUTO VRB03KT 10SM CLR 23/12 A3026 RMK AO2 SLP152 T02280117

More Conditions Fewer Conditions

Pressure 29.98 in
Visibility 10.0 miles
Clouds Clear
Dew Point 53 °F
Humidity 49%
Rainfall 0.00 in
Snow Depth 1 in , 0 in , 0 in
UV 7 out of 12
Pollen 6.50 out of 12
Air Quality Not available.
Flu Activity Not available.
METAR KSJN 161654Z AUTO VRB03KT 10SM CLR 23/12 A3026 RMK AO2 SLP152 T02280117

More Conditions Fewer Conditions

10-Day Weather Forecast

Almanac

Astronomy

Sep. 16, 2014 Rise Set
Actual Time 7:01 AM MDT 7:23 PM MDT
Civil Twilight 6:36 AM MDT 7:48 PM MDT
Nautical Twilight 6:06 AM MDT 8:18 PM MDT
Astronomical Twilight 5:36 AM MDT 8:48 PM MDT
Moon 12:23 AM MDT 2:39 PM MDT
Length of Visible Light 13h 12m
Length of Day
12h 21m
Tomorrow will be 2m 10s shorter.
Last Quarter, 44% of the Moon is Illuminated
Today
Last Quarter
Sep 24
New
Oct 1
First Quarter
Oct 8
Full
Oct 15
Last Quarter

Today's Extremes

State Highs State Lows

Community

WunderPhotos

Upload Photos

1,753,832 photos uploaded!

Nearby

Snow Depth

Station Depth Elevation
Workman Creek 1 in 6900 ft
Promontory 0 in 7930 ft
Fry 0 in 7200 ft
Wildcat 0 in 7850 ft
Heber 0 in 7640 ft

Earthquake Activity

City Distance Mag. Time & Date
No recent earthquake activity has been reported nearby.
Minimum magnitude displayed is 2.5.

Coastal Water Temperatures

Place Temperature
No Stations Reporting

Nearby Weather Stations